createdAt,value
2018-07-20T00:01:36.990Z,4.63
2018-07-20T00:04:05.262Z,4.27
2018-07-20T00:06:33.498Z,3.97
2018-07-20T00:09:01.717Z,4.40
2018-07-20T00:11:29.928Z,4.57
2018-07-20T00:13:58.320Z,4.10
2018-07-20T00:16:26.570Z,4.50
2018-07-20T00:18:54.773Z,4.33
2018-07-20T00:21:22.960Z,4.37
2018-07-20T00:23:51.680Z,4.00
2018-07-20T00:26:19.878Z,4.27
2018-07-20T00:28:48.050Z,4.37
2018-07-20T00:31:16.216Z,4.43
2018-07-20T00:33:44.459Z,4.53
2018-07-20T00:36:12.425Z,4.50
2018-07-20T00:38:40.683Z,4.43
2018-07-20T00:41:08.867Z,4.20
2018-07-20T00:43:37.092Z,4.83
2018-07-20T00:46:09.203Z,4.33
2018-07-20T00:48:37.462Z,4.40
2018-07-20T00:51:06.116Z,4.70
2018-07-20T00:53:34.333Z,4.33
2018-07-20T00:56:02.729Z,4.70
2018-07-20T00:58:30.941Z,4.60
2018-07-20T01:00:59.190Z,4.50
2018-07-20T01:03:27.391Z,4.43
2018-07-20T01:05:55.603Z,4.50
2018-07-20T01:08:23.800Z,4.40
2018-07-20T01:10:52.038Z,4.40
2018-07-20T01:13:20.243Z,4.50
2018-07-20T01:15:49.539Z,4.40
2018-07-20T01:18:17.775Z,4.57
2018-07-20T01:20:45.975Z,4.17
2018-07-20T01:23:14.181Z,4.30
2018-07-20T01:25:43.455Z,4.43
2018-07-20T01:28:11.654Z,4.50
2018-07-20T01:30:39.870Z,4.57
2018-07-20T01:33:08.130Z,4.67
2018-07-20T01:35:37.005Z,4.30
2018-07-20T01:38:05.178Z,4.10
2018-07-20T01:40:33.377Z,4.07
2018-07-20T01:43:01.571Z,4.37
2018-07-20T01:45:30.856Z,4.67
2018-07-20T01:47:59.029Z,4.17
2018-07-20T01:50:27.278Z,4.57
2018-07-20T01:52:55.546Z,4.57
2018-07-20T01:55:24.510Z,4.50
2018-07-20T01:57:53.746Z,4.43
2018-07-20T02:00:21.926Z,4.70
2018-07-20T02:02:50.106Z,4.63
2018-07-20T02:05:18.508Z,5.50
2018-07-20T02:07:46.753Z,4.33
2018-07-20T02:10:15.198Z,4.33
2018-07-20T02:12:43.407Z,4.50
2018-07-20T02:15:11.794Z,4.20
2018-07-20T02:17:40.008Z,4.67
2018-07-20T02:20:08.214Z,4.57
2018-07-20T02:22:36.446Z,4.57
2018-07-20T02:25:04.667Z,4.70
2018-07-20T02:27:32.866Z,4.17
2018-07-20T02:30:01.130Z,4.37
2018-07-20T02:32:29.375Z,4.27
2018-07-20T02:34:57.652Z,4.83
2018-07-20T02:37:25.842Z,4.57
2018-07-20T02:39:54.272Z,5.10
2018-07-20T02:42:22.507Z,4.87
2018-07-20T02:44:50.910Z,4.80
2018-07-20T02:47:19.156Z,4.70
2018-07-20T02:49:47.354Z,5.13
2018-07-20T02:52:15.655Z,5.80
2018-07-20T02:54:44.007Z,4.60
2018-07-20T02:57:12.190Z,5.10
2018-07-20T02:59:40.392Z,5.53
2018-07-20T03:02:08.613Z,6.43
2018-07-20T03:04:36.900Z,4.80
2018-07-20T03:07:05.332Z,4.27
2018-07-20T03:09:33.567Z,4.73
2018-07-20T03:12:01.786Z,4.47
2018-07-20T03:14:30.278Z,5.27
2018-07-20T03:16:58.550Z,4.43
2018-07-20T03:19:26.806Z,4.57
2018-07-20T03:21:54.980Z,5.40
2018-07-20T03:24:23.305Z,4.30
2018-07-20T03:26:51.556Z,4.73
2018-07-20T03:29:20.343Z,4.30
2018-07-20T03:31:48.725Z,4.43
2018-07-20T03:34:16.937Z,4.30
2018-07-20T03:36:45.340Z,4.90
2018-07-20T03:39:13.559Z,4.50
2018-07-20T03:41:41.793Z,4.03
2018-07-20T03:44:10.148Z,4.23
2018-07-20T03:46:38.416Z,4.07
2018-07-20T03:49:06.819Z,4.33
2018-07-20T03:51:34.972Z,4.57
2018-07-20T03:54:03.199Z,4.23
2018-07-20T03:56:31.428Z,4.67
2018-07-20T03:58:59.661Z,4.03
2018-07-20T04:01:27.877Z,4.57
2018-07-20T04:03:56.196Z,5.60
2018-07-20T04:06:24.364Z,4.27
2018-07-20T04:08:52.633Z,4.57
2018-07-20T04:11:20.833Z,4.47
2018-07-20T04:18:25.121Z,4.50
2018-07-20T04:20:53.350Z,3.53
2018-07-20T04:23:21.574Z,3.73
2018-07-20T04:25:49.887Z,3.83
2018-07-20T04:28:18.074Z,3.73
2018-07-20T04:30:46.277Z,4.00
2018-07-20T04:33:14.562Z,3.97
2018-07-20T04:35:43.789Z,3.53
2018-07-20T04:38:11.992Z,3.67
2018-07-20T04:40:40.243Z,3.80
2018-07-20T04:43:08.509Z,4.07
2018-07-20T04:45:36.743Z,3.83
2018-07-20T04:48:05.002Z,3.47
2018-07-20T04:50:33.248Z,3.93
2018-07-20T04:53:01.520Z,3.57
2018-07-20T04:55:29.873Z,3.53
2018-07-20T04:57:58.085Z,4.20
2018-07-20T05:00:26.255Z,3.80
2018-07-20T05:02:54.510Z,3.40
2018-07-20T05:05:22.945Z,3.80
2018-07-20T05:07:51.096Z,3.37
2018-07-20T05:10:19.268Z,3.40
2018-07-20T05:12:47.472Z,4.23
2018-07-20T05:15:15.852Z,3.60
2018-07-20T05:17:44.063Z,3.70
2018-07-20T05:20:12.303Z,3.90
2018-07-20T05:22:40.521Z,3.73
2018-07-20T05:25:08.775Z,4.00
2018-07-20T05:27:36.952Z,3.47
2018-07-20T05:30:05.369Z,3.70
2018-07-20T05:32:33.614Z,4.20
2018-07-20T05:35:01.927Z,4.63
2018-07-20T05:37:30.549Z,3.77
2018-07-20T05:39:58.767Z,3.70
2018-07-20T05:42:27.004Z,3.80
2018-07-20T05:44:55.337Z,4.57
2018-07-20T05:47:23.519Z,3.50
2018-07-20T05:49:51.707Z,3.73
2018-07-20T05:52:19.952Z,4.03
2018-07-20T05:54:48.256Z,4.07
2018-07-20T05:57:16.476Z,4.03
2018-07-20T05:59:44.992Z,3.53
2018-07-20T06:02:13.635Z,3.43
2018-07-20T06:04:41.816Z,3.40
2018-07-20T06:07:10.076Z,3.97
2018-07-20T06:09:38.345Z,3.50
2018-07-20T06:12:06.706Z,3.90
2018-07-20T06:14:35.063Z,3.67
2018-07-20T06:17:03.294Z,3.70
2018-07-20T06:19:31.519Z,3.70
2018-07-20T06:21:59.708Z,3.67
2018-07-20T06:24:28.018Z,3.50
2018-07-20T06:26:56.247Z,3.27
2018-07-20T06:29:24.498Z,3.30
2018-07-20T06:31:52.772Z,3.80
2018-07-20T06:34:21.577Z,3.50
2018-07-20T06:36:49.820Z,3.60
2018-07-20T06:39:18.036Z,3.40
2018-07-20T06:41:46.224Z,3.53
2018-07-20T06:44:14.596Z,3.80
2018-07-20T06:46:42.880Z,3.90
2018-07-20T06:49:11.145Z,3.80
2018-07-20T06:51:39.407Z,3.40
2018-07-20T06:54:08.640Z,3.60
2018-07-20T06:56:36.904Z,3.00
2018-07-20T06:59:05.245Z,4.00
2018-07-20T07:01:33.804Z,3.23
2018-07-20T07:04:02.449Z,3.93
2018-07-20T07:06:30.654Z,3.80
2018-07-20T07:08:59.060Z,3.60
2018-07-20T07:11:27.323Z,3.83
2018-07-20T07:13:55.730Z,4.27
2018-07-20T07:16:23.982Z,3.57
2018-07-20T07:18:52.172Z,4.00
2018-07-20T07:21:20.428Z,4.23
2018-07-20T07:23:48.866Z,4.10
2018-07-20T07:26:17.110Z,3.80
2018-07-20T07:28:45.316Z,3.80
2018-07-20T07:31:13.515Z,3.93
2018-07-20T07:33:41.758Z,4.40
2018-07-20T07:36:09.980Z,3.97
2018-07-20T07:38:38.185Z,3.77
2018-07-20T07:41:06.333Z,3.90
2018-07-20T07:43:34.542Z,4.00
2018-07-20T07:46:02.883Z,4.00
2018-07-20T07:48:31.034Z,4.40
2018-07-20T07:50:59.270Z,4.40
2018-07-20T07:53:27.453Z,4.13
2018-07-20T07:55:55.771Z,4.47
2018-07-20T07:58:24.001Z,4.60
2018-07-20T08:00:51.944Z,4.67
2018-07-20T08:03:20.347Z,4.20
2018-07-20T08:05:48.819Z,4.77
2018-07-20T08:08:17.070Z,4.80
2018-07-20T08:10:45.341Z,5.40
2018-07-20T08:13:13.568Z,4.67
2018-07-20T08:15:41.945Z,4.40
2018-07-20T08:18:10.153Z,4.40
2018-07-20T08:20:38.548Z,4.50
2018-07-20T08:23:06.828Z,4.27
2018-07-20T08:25:35.032Z,4.57
2018-07-20T08:28:03.244Z,4.57
2018-07-20T08:30:31.598Z,4.30
2018-07-20T08:32:59.837Z,4.93
2018-07-20T08:35:28.096Z,3.90
2018-07-20T08:40:31.124Z,4.20
2018-07-20T08:42:59.397Z,4.40
2018-07-20T08:45:27.693Z,5.10
2018-07-20T08:47:56.033Z,4.63
2018-07-20T08:50:24.270Z,5.27
2018-07-20T08:52:52.483Z,6.20
2018-07-20T08:55:20.710Z,5.40
2018-07-20T08:57:48.980Z,6.03
2018-07-20T09:00:17.228Z,5.93
2018-07-20T09:02:45.450Z,5.30
2018-07-20T09:05:13.846Z,5.67
2018-07-20T09:07:42.524Z,6.00
2018-07-20T09:10:11.168Z,5.50
2018-07-20T09:12:39.530Z,6.07
2018-07-20T09:15:08.785Z,5.40
2018-07-20T09:17:36.979Z,5.33
2018-07-20T09:20:04.949Z,5.50
2018-07-20T09:22:33.144Z,6.57
2018-07-20T09:25:01.423Z,5.37
2018-07-20T09:30:22.280Z,6.03
2018-07-20T09:32:50.524Z,5.67
2018-07-20T09:35:19.028Z,5.75
2018-07-20T09:37:47.321Z,5.30
2018-07-20T09:40:15.538Z,5.17
2018-07-20T09:42:43.828Z,5.43
2018-07-20T09:45:12.126Z,5.60
2018-07-20T09:47:40.374Z,5.93
2018-07-20T09:50:08.601Z,6.30
2018-07-20T09:52:36.771Z,5.67
2018-07-20T09:55:05.174Z,5.03
2018-07-20T09:57:33.430Z,5.80
2018-07-20T10:00:01.635Z,6.00
2018-07-20T10:02:29.909Z,6.57
2018-07-20T10:04:58.330Z,6.00
2018-07-20T10:07:26.562Z,5.80
2018-07-20T10:09:54.805Z,5.90
2018-07-20T10:12:23.011Z,5.90
2018-07-20T10:14:51.377Z,6.43
2018-07-20T10:17:19.637Z,7.00
2018-07-20T10:19:47.910Z,6.70
2018-07-20T10:22:16.086Z,6.43
2018-07-20T10:24:44.481Z,6.27
2018-07-20T10:27:12.750Z,5.67
2018-07-20T10:29:41.007Z,6.40
2018-07-20T10:32:09.217Z,7.07
2018-07-20T10:34:37.556Z,6.17
2018-07-20T10:37:05.808Z,5.60
2018-07-20T10:39:34.087Z,5.40
2018-07-20T10:42:02.373Z,4.97
2018-07-20T10:44:30.682Z,6.50
2018-07-20T10:46:59.013Z,5.90
2018-07-20T10:49:27.230Z,6.30
2018-07-20T10:51:55.472Z,5.93
2018-07-20T10:54:23.702Z,6.70
2018-07-20T10:56:51.904Z,5.60
2018-07-20T10:59:20.116Z,5.17
2018-07-20T11:01:48.383Z,4.93
2018-07-20T11:04:16.647Z,5.73
2018-07-20T11:06:44.833Z,5.63
2018-07-20T11:09:13.052Z,5.67
2018-07-20T11:11:41.246Z,6.67
2018-07-20T11:14:11.665Z,5.57
2018-07-20T11:16:39.891Z,5.30
2018-07-20T11:19:08.110Z,5.20
2018-07-20T11:21:36.358Z,5.67
2018-07-20T11:24:04.676Z,4.73
2018-07-20T11:26:32.849Z,5.20
2018-07-20T11:29:01.048Z,6.70
2018-07-20T11:31:28.994Z,5.00
2018-07-20T11:33:57.261Z,7.73
2018-07-20T11:36:25.443Z,6.90
2018-07-20T11:38:53.626Z,5.40
2018-07-20T11:41:21.885Z,6.70
2018-07-20T11:43:51.366Z,6.83
2018-07-20T11:46:19.581Z,4.97
2018-07-20T11:48:47.786Z,5.13
2018-07-20T11:51:15.991Z,4.53
2018-07-20T11:53:44.257Z,4.63
2018-07-20T11:56:12.487Z,4.10
2018-07-20T11:58:40.667Z,4.67
2018-07-20T12:01:08.881Z,4.67
2018-07-20T12:03:37.055Z,4.00
2018-07-20T12:06:05.336Z,3.90
2018-07-20T12:08:33.568Z,5.03
2018-07-20T12:11:01.546Z,4.10
2018-07-20T12:13:29.920Z,4.30
2018-07-20T12:15:58.231Z,3.47
2018-07-20T12:18:26.401Z,3.53
2018-07-20T12:20:54.603Z,3.30
2018-07-20T12:23:22.823Z,2.57
2018-07-20T12:25:50.852Z,2.83
2018-07-20T12:28:19.068Z,3.00
2018-07-20T12:30:47.240Z,3.37
2018-07-20T12:33:15.447Z,3.20
2018-07-20T12:35:44.027Z,2.83
2018-07-20T12:38:12.250Z,3.10
2018-07-20T12:40:40.435Z,3.00
2018-07-20T12:43:08.666Z,3.03
2018-07-20T12:45:36.937Z,2.47
2018-07-20T12:48:05.121Z,2.97
2018-07-20T12:50:33.287Z,2.40
2018-07-20T12:53:01.506Z,2.90
2018-07-20T12:55:29.869Z,3.23
2018-07-20T12:57:58.098Z,2.93
2018-07-20T13:00:26.288Z,3.00
2018-07-20T13:02:54.445Z,3.00
2018-07-20T13:05:23.734Z,2.90
2018-07-20T13:07:51.903Z,2.90
2018-07-20T13:10:20.128Z,2.70
2018-07-20T13:12:48.348Z,2.87
2018-07-20T13:15:16.568Z,2.60
2018-07-20T13:17:44.819Z,2.27
2018-07-20T13:20:13.043Z,3.30
2018-07-20T13:22:41.321Z,2.90
2018-07-20T13:25:09.576Z,2.80
2018-07-20T13:27:37.802Z,2.30
2018-07-20T13:30:07.248Z,2.80
2018-07-20T13:32:35.437Z,2.70
2018-07-20T13:35:03.630Z,2.50
2018-07-20T13:37:31.861Z,2.50
2018-07-20T13:40:00.053Z,2.63
2018-07-20T13:42:28.282Z,2.70
2018-07-20T13:44:56.551Z,2.83
2018-07-20T13:47:24.780Z,3.17
2018-07-20T13:49:52.806Z,2.90
2018-07-20T13:52:20.985Z,2.90
2018-07-20T13:54:49.240Z,3.13
2018-07-20T13:57:17.460Z,2.97
2018-07-20T13:59:46.643Z,2.67
2018-07-20T14:02:14.910Z,2.70
2018-07-20T14:04:43.335Z,3.13
2018-07-20T14:07:12.337Z,2.77
2018-07-20T14:09:40.519Z,3.20
2018-07-20T14:12:09.005Z,3.30
2018-07-20T14:14:37.337Z,3.00
2018-07-20T14:17:05.564Z,3.20
2018-07-20T14:19:33.759Z,2.57
2018-07-20T14:22:01.940Z,3.10
2018-07-20T14:24:30.197Z,2.60
2018-07-20T14:26:58.438Z,2.47
2018-07-20T14:29:26.683Z,2.13
2018-07-20T14:31:55.115Z,2.10
2018-07-20T14:34:23.367Z,2.47
2018-07-20T14:36:51.616Z,1.90
2018-07-20T14:39:19.906Z,1.87
2018-07-20T14:41:48.059Z,2.10
2018-07-20T14:44:16.437Z,2.03
2018-07-20T14:46:44.642Z,2.47
2018-07-20T14:49:12.976Z,2.50
2018-07-20T14:51:41.206Z,2.30
2018-07-20T14:54:09.484Z,2.40
2018-07-20T14:56:37.730Z,1.90
2018-07-20T14:59:05.669Z,2.20
2018-07-20T15:01:33.892Z,2.10
2018-07-20T15:04:02.220Z,2.60
2018-07-20T15:06:30.464Z,2.07
2018-07-20T15:08:58.736Z,2.03
2018-07-20T15:11:27.033Z,2.20
2018-07-20T15:13:56.759Z,2.40
2018-07-20T15:16:25.079Z,2.60
2018-07-20T15:18:53.041Z,2.50
2018-07-20T15:21:21.304Z,2.60
2018-07-20T15:23:49.622Z,2.50
2018-07-20T15:26:17.839Z,2.43
2018-07-20T15:28:46.040Z,2.43
2018-07-20T15:31:14.377Z,2.67
2018-07-20T15:33:42.567Z,2.50
2018-07-20T15:36:10.949Z,2.77
2018-07-20T15:38:39.174Z,2.50
2018-07-20T15:41:08.188Z,2.47
2018-07-20T15:43:36.786Z,2.50
2018-07-20T15:46:06.316Z,2.70
2018-07-20T15:48:33.218Z,2.90
2018-07-20T15:51:01.552Z,2.27
2018-07-20T15:53:37.362Z,2.53
2018-07-20T15:55:58.178Z,2.50
2018-07-20T15:58:26.445Z,2.67
2018-07-20T16:00:54.627Z,2.30
2018-07-20T16:03:22.835Z,2.53
2018-07-20T16:05:52.215Z,2.30
2018-07-20T16:08:20.322Z,2.53
2018-07-20T16:10:48.530Z,2.67
2018-07-20T16:13:16.686Z,2.80
2018-07-20T16:15:45.002Z,2.37
2018-07-20T16:18:13.163Z,2.40
2018-07-20T16:20:41.364Z,2.30
2018-07-20T16:23:09.650Z,2.30
2018-07-20T16:25:37.996Z,2.50
2018-07-20T16:28:06.302Z,1.93
2018-07-20T16:30:34.520Z,1.97
2018-07-20T16:33:02.715Z,2.33
2018-07-20T16:35:31.114Z,3.07
2018-07-20T16:37:59.321Z,2.30
2018-07-20T16:40:27.528Z,2.20
2018-07-20T16:42:55.805Z,2.23
2018-07-20T16:45:23.835Z,2.37
2018-07-20T16:47:52.018Z,2.30
2018-07-20T16:50:20.170Z,2.07
2018-07-20T16:52:48.937Z,1.90
2018-07-20T16:55:17.267Z,2.20
2018-07-20T16:57:45.477Z,2.03
2018-07-20T17:00:13.769Z,2.13
2018-07-20T17:02:41.990Z,2.40
2018-07-20T17:05:10.339Z,2.00
2018-07-20T17:07:38.508Z,1.80
2018-07-20T17:10:07.629Z,2.10
2018-07-20T17:12:35.823Z,2.07
2018-07-20T17:15:04.363Z,2.13
2018-07-20T17:17:32.574Z,2.00
2018-07-20T17:20:00.810Z,2.00
2018-07-20T17:22:29.036Z,1.87
2018-07-20T17:24:57.245Z,1.60
2018-07-20T17:27:25.670Z,1.97
2018-07-20T17:29:53.844Z,1.70
2018-07-20T17:32:21.842Z,2.30
2018-07-20T17:34:51.073Z,2.10
2018-07-20T17:37:19.235Z,1.97
2018-07-20T17:39:47.538Z,1.70
2018-07-20T17:42:15.709Z,1.80
2018-07-20T17:44:43.996Z,1.80
2018-07-20T17:47:12.205Z,2.00
2018-07-20T17:49:40.407Z,1.80
2018-07-20T17:52:08.571Z,2.00
2018-07-20T17:54:37.882Z,1.90
2018-07-20T17:57:06.087Z,1.77
2018-07-20T17:59:34.303Z,2.03
2018-07-20T18:02:02.494Z,2.30
2018-07-20T18:04:31.064Z,1.80
2018-07-20T18:06:59.568Z,2.20
2018-07-20T18:09:27.729Z,1.90
2018-07-20T18:11:55.945Z,1.80
2018-07-20T18:14:24.325Z,1.90
2018-07-20T18:16:52.512Z,2.10
2018-07-20T18:19:20.467Z,1.40
2018-07-20T18:21:48.690Z,1.63
2018-07-20T18:24:17.013Z,1.57
2018-07-20T18:26:45.199Z,1.87
2018-07-20T18:29:13.388Z,1.53
2018-07-20T18:31:41.668Z,1.77
2018-07-20T18:34:10.955Z,1.70
2018-07-20T18:36:39.218Z,1.77
2018-07-20T18:39:09.562Z,2.10
2018-07-20T18:41:38.436Z,1.80
2018-07-20T18:44:08.965Z,1.93
2018-07-20T18:46:37.573Z,2.17
2018-07-20T18:49:05.768Z,2.40
2018-07-20T18:51:33.959Z,1.53
2018-07-20T18:54:02.248Z,1.77
2018-07-20T18:56:30.580Z,1.90
2018-07-20T18:58:58.827Z,2.20
2018-07-20T19:01:27.705Z,1.73
2018-07-20T19:03:55.978Z,1.90
2018-07-20T19:06:24.502Z,1.87
2018-07-20T19:08:52.766Z,1.90
2018-07-20T19:11:20.968Z,2.00
2018-07-20T19:13:49.474Z,1.90
2018-07-20T19:16:17.720Z,1.53
2018-07-20T19:18:46.870Z,1.90
2018-07-20T19:21:15.124Z,1.73
2018-07-20T19:23:43.418Z,1.97
2018-07-20T19:26:11.660Z,1.70
2018-07-20T19:28:39.884Z,1.80
2018-07-20T19:31:08.082Z,1.47
2018-07-20T19:33:36.328Z,1.63
2018-07-20T19:36:04.756Z,1.50
2018-07-20T19:38:32.955Z,2.07
2018-07-20T19:41:01.403Z,1.90
2018-07-20T19:43:29.606Z,1.97
2018-07-20T19:45:57.844Z,1.77
2018-07-20T19:48:26.043Z,1.63
2018-07-20T19:50:54.288Z,1.70
2018-07-20T19:53:22.498Z,1.90
2018-07-20T19:55:50.899Z,1.70
2018-07-20T19:58:18.868Z,1.50
2018-07-20T20:00:47.144Z,1.50
2018-07-20T20:03:15.347Z,1.60
2018-07-20T20:05:43.671Z,1.80
2018-07-20T20:08:11.997Z,1.60
2018-07-20T20:10:40.242Z,2.97
2018-07-20T20:13:08.499Z,2.30
2018-07-20T20:15:36.816Z,1.60
2018-07-20T20:18:04.741Z,1.70
2018-07-20T20:20:32.974Z,1.80
2018-07-20T20:23:01.147Z,1.60
2018-07-20T20:25:29.448Z,1.50
2018-07-20T20:27:57.595Z,1.80
2018-07-20T20:30:25.795Z,1.70
2018-07-20T20:32:53.955Z,1.60
2018-07-20T20:35:22.326Z,1.50
2018-07-20T20:37:50.560Z,1.40
2018-07-20T20:40:18.815Z,1.50
2018-07-20T20:42:47.064Z,1.50
2018-07-20T20:45:21.131Z,1.80
2018-07-20T20:47:49.313Z,1.57
2018-07-20T20:50:17.735Z,1.97
2018-07-20T20:52:45.880Z,1.70
2018-07-20T20:55:14.562Z,2.07
2018-07-20T20:57:42.822Z,1.70
2018-07-20T21:00:11.081Z,1.73
2018-07-20T21:02:39.339Z,1.60
2018-07-20T21:05:08.021Z,1.97
2018-07-20T21:07:36.258Z,1.70
2018-07-20T21:10:05.121Z,1.70
2018-07-20T21:12:33.342Z,1.70
2018-07-20T21:15:01.969Z,1.73
2018-07-20T21:17:30.155Z,1.73
2018-07-20T21:19:58.378Z,1.80
2018-07-20T21:22:26.864Z,1.70
2018-07-20T21:24:55.181Z,2.00
2018-07-20T21:27:23.386Z,2.20
2018-07-20T21:29:51.549Z,1.73
2018-07-20T21:32:19.919Z,1.77
2018-07-20T21:34:48.268Z,1.43
2018-07-20T21:37:16.426Z,1.70
2018-07-20T21:39:44.695Z,1.97
2018-07-20T21:42:12.886Z,1.57
2018-07-20T21:44:41.094Z,1.50
2018-07-20T21:47:09.295Z,1.70
2018-07-20T21:49:37.551Z,1.73
2018-07-20T21:52:05.810Z,1.60
2018-07-20T21:54:34.128Z,1.90
2018-07-20T21:57:02.349Z,1.70
2018-07-20T21:59:30.565Z,1.60
2018-07-20T22:01:58.767Z,1.80
2018-07-20T22:04:27.031Z,1.67
2018-07-20T22:06:55.291Z,1.53
2018-07-20T22:09:23.526Z,1.77
2018-07-20T22:11:51.707Z,2.60
2018-07-20T22:14:20.055Z,2.13
2018-07-20T22:16:48.283Z,1.80
2018-07-20T22:19:16.467Z,1.50
2018-07-20T22:21:44.660Z,1.60
2018-07-20T22:24:14.031Z,1.70
2018-07-20T22:26:42.315Z,1.97
2018-07-20T22:29:10.525Z,1.70
2018-07-20T22:31:38.799Z,1.60
2018-07-20T22:34:06.747Z,2.00
2018-07-20T22:36:35.024Z,2.20
2018-07-20T22:39:04.051Z,1.80
2018-07-20T22:41:32.220Z,1.80
2018-07-20T22:44:00.647Z,1.70
2018-07-20T22:46:28.823Z,1.80
2018-07-20T22:48:57.012Z,2.07
2018-07-20T22:51:25.225Z,1.87
2018-07-20T22:53:53.507Z,1.87
2018-07-20T22:56:21.703Z,2.00
2018-07-20T22:58:49.885Z,1.93
2018-07-20T23:01:18.300Z,1.80
2018-07-20T23:03:46.674Z,1.90
2018-07-20T23:06:14.925Z,1.87
2018-07-20T23:08:43.324Z,1.87
2018-07-20T23:11:11.594Z,1.80
2018-07-20T23:13:40.042Z,1.73
2018-07-20T23:16:08.256Z,1.83
2018-07-20T23:18:36.573Z,1.80
2018-07-20T23:21:04.872Z,2.00
2018-07-20T23:23:33.046Z,1.60
2018-07-20T23:26:01.343Z,1.70
2018-07-20T23:28:29.571Z,2.00
2018-07-20T23:30:58.620Z,1.72
2018-07-20T23:33:26.828Z,1.60
2018-07-20T23:35:55.266Z,1.80
2018-07-20T23:38:23.460Z,1.57
2018-07-20T23:40:51.825Z,1.57
2018-07-20T23:43:20.102Z,1.63
2018-07-20T23:45:48.325Z,1.60
2018-07-20T23:48:16.580Z,1.43
2018-07-20T23:50:44.875Z,1.80
2018-07-20T23:53:13.139Z,2.20
2018-07-20T23:55:42.432Z,1.63
2018-07-20T23:58:10.694Z,1.70
